Time;durP1;ratioP1;P1;durP2;ratioP2;P2;SDS_P1;SDS_P2;PMS_P1;PMS_P2;Temp;Humidity;BMP_temperature;BMP_pressure;BME280_temperature;BME280_humidity;BME280_pressure;Samples;Min_cycle;Max_cycle;Signal;HPM_P1;HPM_P2
2021/04/27 00:00:22;;;;;;;12.15;6.78;;;;;;;4.92;57.54;100481.05;1714839;82;21159;-44
2021/04/27 00:02:50;;;;;;;13.48;6.87;;;;;;;4.92;57.60;100477.08;1720943;82;21671;-44
2021/04/27 00:05:18;;;;;;;11.70;7.20;;;;;;;4.92;57.86;100470.94;1712575;82;21179;-42
2021/04/27 00:07:46;;;;;;;11.57;7.50;;;;;;;4.94;58.20;100471.75;1727196;82;21183;-44
2021/04/27 00:10:15;;;;;;;13.98;7.25;;;;;;;4.94;58.49;100459.39;1715729;82;21121;-44
2021/04/27 00:12:43;;;;;;;14.03;8.88;;;;;;;4.96;58.80;100462.84;1712232;82;21135;-43
2021/04/27 00:15:15;;;;;;;13.13;6.92;;;;;;;4.96;59.51;100456.24;1713735;82;21129;-43
2021/04/27 00:17:43;;;;;;;10.95;6.92;;;;;;;4.96;60.11;100455.36;1709587;82;21189;-46
2021/04/27 00:20:11;;;;;;;12.53;6.00;;;;;;;4.96;60.66;100453.60;1714110;82;21167;-46
2021/04/27 00:22:39;;;;;;;9.38;6.55;;;;;;;4.97;60.88;100451.81;1715813;82;21179;-45
2021/04/27 00:25:08;;;;;;;10.18;6.58;;;;;;;4.97;61.06;100453.99;1713908;82;21645;-47
2021/04/27 00:27:36;;;;;;;9.58;5.67;;;;;;;4.94;60.41;100457.22;1714630;82;21132;-44
2021/04/27 00:30:05;;;;;;;10.25;7.03;;;;;;;4.88;59.89;100459.59;1715090;82;21503;-48
2021/04/27 00:32:34;;;;;;;11.10;7.47;;;;;;;4.84;59.67;100458.00;1714786;82;21147;-45
2021/04/27 00:35:03;;;;;;;11.95;7.05;;;;;;;4.85;59.94;100457.53;1714876;82;21149;-45
2021/04/27 00:37:30;;;;;;;15.28;8.95;;;;;;;4.86;60.07;100457.45;1718163;82;21554;-45
2021/04/27 00:39:58;;;;;;;15.58;7.58;;;;;;;4.87;59.84;100460.98;1715337;82;21131;-46
2021/04/27 00:42:31;;;;;;;12.82;7.45;;;;;;;4.89;59.55;100465.73;1714122;82;21181;-44
2021/04/27 00:44:59;;;;;;;12.80;7.42;;;;;;;4.87;59.10;100472.41;1712191;82;21265;-43
2021/04/27 00:47:27;;;;;;;8.28;5.85;;;;;;;4.81;58.74;100473.08;1715429;82;22065;-44
2021/04/27 00:49:55;;;;;;;10.50;5.97;;;;;;;4.77;58.41;100474.97;1712788;82;21274;-42
2021/04/27 00:52:24;;;;;;;9.20;4.90;;;;;;;4.74;58.30;100475.94;1712700;82;21124;-44
2021/04/27 00:54:52;;;;;;;8.33;5.03;;;;;;;4.75;58.45;100478.98;1714673;82;21678;-44
2021/04/27 00:57:20;;;;;;;8.78;5.17;;;;;;;4.76;58.29;100476.76;1716960;82;21105;-44
2021/04/27 00:59:49;;;;;;;7.03;4.42;;;;;;;4.77;57.95;100473.66;1711443;82;22033;-46
2021/04/27 01:02:17;;;;;;;8.05;4.75;;;;;;;4.76;57.85;100478.08;1693972;82;21145;-42
2021/04/27 01:04:45;;;;;;;7.60;5.05;;;;;;;4.76;57.75;100471.91;1713545;82;21117;-42
2021/04/27 01:07:13;;;;;;;9.68;5.10;;;;;;;4.77;57.58;100474.97;1718808;82;21164;-43
2021/04/27 01:09:43;;;;;;;10.40;5.03;;;;;;;4.79;57.57;100469.19;1716402;82;21699;-43
2021/04/27 01:12:30;;;;;;;6.05;4.47;;;;;;;4.77;57.29;100473.19;1690094;82;21122;-41
2021/04/27 01:15:18;;;;;;;7.30;4.87;;;;;;;4.77;57.07;100474.51;1709194;82;21118;-42
2021/04/27 01:17:46;;;;;;;7.42;5.22;;;;;;;4.77;57.14;100475.83;1718490;82;21134;-44
2021/04/27 01:20:36;;;;;;;8.58;4.83;;;;;;;4.75;57.16;100478.98;1717428;82;21149;-46
2021/04/27 01:23:25;;;;;;;8.58;5.65;;;;;;;4.80;57.37;100475.33;1796821;78;22964;-44
2021/04/27 01:26:08;;;;;;;6.72;4.90;;;;;;;4.77;57.51;100483.76;1745719;80;21144;-44
2021/04/27 01:28:38;;;;;;;9.10;5.40;;;;;;;4.79;57.66;100486.36;1711316;81;21195;-46
2021/04/27 01:31:05;;;;;;;7.62;5.08;;;;;;;4.81;57.70;100485.82;1711036;83;21168;-42
2021/04/27 01:33:33;;;;;;;6.37;4.58;;;;;;;4.81;57.75;100483.17;1721250;81;21556;-43
2021/04/27 01:36:03;;;;;;;13.70;5.90;;;;;;;4.82;57.86;100480.11;1718459;81;21122;-47
2021/04/27 01:38:32;;;;;;;10.58;5.17;;;;;;;4.83;58.10;100481.35;1702904;83;21154;-44
2021/04/27 01:41:00;;;;;;;9.53;5.53;;;;;;;4.85;58.14;100484.81;1728359;81;21161;-43
2021/04/27 01:43:28;;;;;;;8.70;5.08;;;;;;;4.86;58.04;100483.02;1730605;81;21141;-46
2021/04/27 01:46:04;;;;;;;7.78;5.25;;;;;;;4.85;57.99;100483.95;1726971;81;21152;-44
2021/04/27 01:48:33;;;;;;;7.58;5.15;;;;;;;4.83;58.01;100487.95;1728394;81;21177;-44
2021/04/27 01:51:04;;;;;;;8.08;5.20;;;;;;;4.82;58.23;100488.89;1724002;81;21149;-43
2021/04/27 01:53:51;;;;;;;7.45;4.87;;;;;;;4.86;58.33;100486.98;1798285;79;23615;-45
2021/04/27 01:56:20;;;;;;;8.23;5.37;;;;;;;4.81;58.55;100490.25;1778755;79;21164;-43
2021/04/27 01:58:49;;;;;;;7.30;5.05;;;;;;;4.81;58.73;100492.42;1781582;80;21184;-43
2021/04/27 02:01:19;;;;;;;7.55;4.87;;;;;;;4.81;59.11;100495.53;1774786;79;21143;-47
2021/04/27 02:03:47;;;;;;;9.13;4.97;;;;;;;4.80;59.24;100501.28;1776163;79;21157;-46
2021/04/27 02:06:24;;;;;;;7.55;4.97;;;;;;;4.84;59.40;100503.34;1761045;79;22934;-44
2021/04/27 02:09:05;;;;;;;7.03;4.40;;;;;;;4.81;59.54;100500.81;1734012;80;21142;-44
2021/04/27 02:11:35;;;;;;;7.83;4.92;;;;;;;4.81;59.77;100498.17;1735118;80;21137;-47
2021/04/27 02:14:04;;;;;;;10.60;5.95;;;;;;;4.80;59.96;100496.00;1741675;80;21117;-44
2021/04/27 02:17:14;;;;;;;9.93;6.05;;;;;;;4.80;60.09;100500.42;1734236;80;21856;-43
2021/04/27 02:19:43;;;;;;;13.03;7.42;;;;;;;4.78;60.37;100496.50;1738697;80;21134;-42
2021/04/27 02:22:12;;;;;;;13.40;7.58;;;;;;;4.77;60.45;100502.72;1694274;82;21487;-44
2021/04/27 02:24:47;;;;;;;12.20;7.83;;;;;;;4.76;60.58;100501.86;1734549;80;21648;-43
2021/04/27 02:27:15;;;;;;;10.63;6.50;;;;;;;4.75;60.74;100502.75;1733443;82;21157;-45
2021/04/27 02:29:43;;;;;;;9.05;5.95;;;;;;;4.74;60.74;100507.65;1732892;80;21989;-44
2021/04/27 02:32:13;;;;;;;9.03;5.80;;;;;;;4.70;60.79;100496.77;1731563;82;21166;-42
2021/04/27 02:34:43;;;;;;;7.58;4.95;;;;;;;4.69;61.09;100506.08;1716245;81;21225;-43
2021/04/27 02:37:14;;;;;;;8.55;5.20;;;;;;;4.67;61.15;100515.37;1686601;83;21153;-43
2021/04/27 02:39:42;;;;;;;8.17;5.07;;;;;;;4.66;61.02;100514.09;1683000;82;21185;-43
2021/04/27 02:42:10;;;;;;;7.22;4.65;;;;;;;4.61;60.95;100509.41;1681992;82;21827;-43
2021/04/27 02:44:53;;;;;;;10.68;5.10;;;;;;;4.58;61.09;100509.52;1716865;82;21173;-43
2021/04/27 02:47:32;;;;;;;7.67;4.78;;;;;;;4.59;61.11;100511.27;1803597;78;23523;-41
2021/04/27 02:50:01;;;;;;;7.97;5.30;;;;;;;4.54;61.33;100508.78;1751957;80;21728;-41
2021/04/27 02:52:29;;;;;;;8.58;5.62;;;;;;;4.51;61.56;100510.17;1775882;79;21126;-42
2021/04/27 02:54:58;;;;;;;9.53;5.72;;;;;;;4.49;61.75;100510.24;1776149;79;21122;-41
2021/04/27 02:57:26;;;;;;;11.10;7.05;;;;;;;4.48;61.92;100508.96;1721757;81;21157;-39
2021/04/27 02:59:54;;;;;;;14.55;8.33;;;;;;;4.46;61.92;100509.03;1725090;81;21163;-41
2021/04/27 03:02:22;;;;;;;12.05;7.87;;;;;;;4.42;61.92;100507.39;1724509;81;21161;-45
2021/04/27 03:04:50;;;;;;;8.10;5.17;;;;;;;4.38;61.86;100502.25;1725171;81;21170;-41
2021/04/27 03:07:20;;;;;;;10.50;5.90;;;;;;;4.32;61.95;100505.50;1729300;81;21131;-43
2021/04/27 03:09:49;;;;;;;8.68;5.12;;;;;;;4.30;62.13;100505.14;1726213;81;21164;-45
2021/04/27 03:12:17;;;;;;;6.87;4.42;;;;;;;4.28;62.15;100506.53;1719465;82;21181;-46
2021/04/27 03:14:45;;;;;;;7.95;4.65;;;;;;;4.28;62.28;100509.60;1721714;82;21109;-44
2021/04/27 03:17:13;;;;;;;7.42;5.12;;;;;;;4.26;62.48;100506.17;1728607;82;21177;-45
2021/04/27 03:19:43;;;;;;;7.60;4.65;;;;;;;4.23;62.66;100504.92;1722624;81;21158;-45
2021/04/27 03:22:15;;;;;;;9.65;5.25;;;;;;;4.21;62.85;100503.67;1717982;81;21146;-44
2021/04/27 03:24:43;;;;;;;6.60;4.20;;;;;;;4.17;63.16;100500.72;1741111;81;21177;-43
2021/04/27 03:27:11;;;;;;;8.18;4.40;;;;;;;4.14;63.31;100501.28;1715668;81;21161;-44
2021/04/27 03:29:50;;;;;;;5.85;3.87;;;;;;;4.17;63.58;100494.58;1764656;79;23126;-45
2021/04/27 03:32:18;;;;;;;5.78;4.05;;;;;;;4.15;63.78;100495.94;1712972;82;21715;-43
2021/04/27 03:34:47;;;;;;;6.60;4.00;;;;;;;4.16;63.85;100497.68;1726214;82;21126;-45
2021/04/27 03:37:15;;;;;;;5.55;3.65;;;;;;;4.18;63.81;100500.25;1687576;82;21166;-44
2021/04/27 03:39:43;;;;;;;5.67;3.80;;;;;;;4.18;63.73;100499.79;1719184;82;21122;-43
2021/04/27 03:42:11;;;;;;;6.70;4.35;;;;;;;4.21;63.80;100502.36;1718090;82;21172;-44
2021/04/27 03:44:39;;;;;;;7.60;4.72;;;;;;;4.23;63.85;100500.97;1683279;83;21230;-46
2021/04/27 03:47:07;;;;;;;4.90;3.40;;;;;;;4.25;63.89;100503.97;1719195;82;21141;-44
2021/04/27 03:49:35;;;;;;;5.95;3.98;;;;;;;4.26;63.88;100504.39;1691007;82;21122;-44
2021/04/27 03:52:03;;;;;;;7.25;3.67;;;;;;;4.28;63.91;100509.17;1714119;82;21159;-45
2021/04/27 03:54:32;;;;;;;7.42;4.05;;;;;;;4.29;63.95;100499.47;1714278;82;21150;-42
2021/04/27 03:57:02;;;;;;;5.10;3.17;;;;;;;4.29;63.93;100508.71;1718468;82;21292;-46
2021/04/27 03:59:31;;;;;;;5.47;3.20;;;;;;;4.30;64.04;100507.78;1694576;82;21109;-43
2021/04/27 04:01:59;;;;;;;8.18;3.52;;;;;;;4.33;64.15;100515.17;1716593;82;21576;-43
2021/04/27 04:04:27;;;;;;;5.92;3.62;;;;;;;4.34;64.16;100512.92;1715924;82;22174;-43
2021/04/27 04:07:13;;;;;;;6.42;3.30;;;;;;;4.37;64.27;100509.32;1719052;82;21149;-44
2021/04/27 04:09:59;;;;;;;6.03;3.55;;;;;;;4.38;64.22;100520.73;1711434;82;21161;-45
2021/04/27 04:12:28;;;;;;;6.00;3.30;;;;;;;4.39;64.21;100518.06;1712279;82;21291;-44
2021/04/27 04:14:58;;;;;;;5.28;3.47;;;;;;;4.40;64.41;100521.09;1712473;82;21133;-44
2021/04/27 04:17:35;;;;;;;6.17;3.67;;;;;;;4.44;64.43;100520.55;1789482;78;28352;-41
2021/04/27 04:20:06;;;;;;;4.92;3.17;;;;;;;4.44;64.43;100520.55;1778684;80;21481;-41
2021/04/27 04:22:37;;;;;;;5.15;2.92;;;;;;;4.48;64.44;100520.38;1752063;79;21137;-42
2021/04/27 04:25:09;;;;;;;6.12;4.08;;;;;;;4.51;64.57;100524.27;1778020;79;21105;-46
2021/04/27 04:27:37;;;;;;;5.35;4.00;;;;;;;4.52;64.69;100522.48;1747259;80;21133;-43
2021/04/27 04:30:20;;;;;;;5.15;3.60;;;;;;;4.54;64.74;100523.30;1777987;79;21727;-42
2021/04/27 04:32:48;;;;;;;5.47;3.08;;;;;;;4.55;64.70;100528.52;1777757;80;21652;-43
2021/04/27 04:35:18;;;;;;;5.17;3.12;;;;;;;4.58;64.92;100528.02;1757647;80;21227;-43
2021/04/27 04:38:00;;;;;;;5.20;3.02;;;;;;;4.61;64.85;100527.47;1801000;77;22980;-42
2021/04/27 04:40:48;;;;;;;5.87;3.22;;;;;;;4.61;64.86;100530.55;1778408;78;21133;-45
2021/04/27 04:43:24;;;;;;;4.15;2.70;;;;;;;4.65;64.69;100526.91;1774956;78;21145;-40
2021/04/27 04:46:10;;;;;;;5.28;3.35;;;;;;;4.67;64.67;100530.36;1717578;81;21169;-45
2021/04/27 04:48:57;;;;;;;4.72;3.12;;;;;;;4.68;64.89;100523.69;1731544;81;21141;-43
2021/04/27 04:51:33;;;;;;;4.97;3.27;;;;;;;4.69;64.84;100528.08;1593268;88;21211;-44
2021/04/27 04:54:08;;;;;;;4.65;3.37;;;;;;;4.72;64.92;100525.79;1803440;77;23088;-43
2021/04/27 04:56:36;;;;;;;4.35;3.47;;;;;;;4.67;65.19;100524.62;1781400;78;21165;-41
2021/04/27 04:59:04;;;;;;;4.92;3.00;;;;;;;4.71;65.39;100525.36;1779271;78;21242;-40
2021/04/27 05:01:32;;;;;;;5.25;3.55;;;;;;;4.76;65.47;100525.64;1722901;81;21147;-45
2021/04/27 05:04:13;;;;;;;5.28;3.55;;;;;;;4.77;65.54;100521.21;1705203;82;21589;-42
2021/04/27 05:07:04;;;;;;;4.58;3.17;;;;;;;4.75;65.83;100527.00;1740860;81;21149;-43
2021/04/27 05:09:42;;;;;;;4.92;3.40;;;;;;;4.74;65.76;100527.92;1600152;87;21275;-43
2021/04/27 05:12:19;;;;;;;5.37;3.65;;;;;;;4.76;65.82;100527.39;1750284;79;28847;-42
2021/04/27 05:14:55;;;;;;;7.05;3.30;;;;;;;4.74;65.96;100530.10;1736458;80;21173;-43
2021/04/27 05:17:23;;;;;;;5.42;3.00;;;;;;;4.82;65.96;100525.88;1734850;82;21496;-44
2021/04/27 05:19:52;;;;;;;3.98;2.85;;;;;;;4.88;66.02;100523.48;1735044;82;21157;-43
2021/04/27 05:22:21;;;;;;;4.60;3.22;;;;;;;4.94;66.03;100527.25;1730567;80;21133;-44
2021/04/27 05:24:49;;;;;;;5.37;3.33;;;;;;;4.99;65.99;100529.28;1736411;82;21125;-43
2021/04/27 05:27:19;;;;;;;4.65;3.27;;;;;;;5.04;65.28;100531.30;1727646;82;21130;-43
2021/04/27 05:29:46;;;;;;;7.08;3.72;;;;;;;5.02;65.25;100535.77;1735219;80;21594;-43
2021/04/27 05:32:15;;;;;;;4.12;2.67;;;;;;;5.03;65.07;100537.48;1733811;81;21406;-45
2021/04/27 05:34:43;;;;;;;4.47;2.62;;;;;;;5.08;65.05;100534.22;1736479;82;21455;-45
2021/04/27 05:37:11;;;;;;;5.10;3.40;;;;;;;5.13;65.09;100528.78;1733019;80;21169;-43
2021/04/27 05:39:38;;;;;;;4.22;3.25;;;;;;;5.22;65.03;100529.79;1734195;80;21647;-44
2021/04/27 05:42:06;;;;;;;4.20;3.08;;;;;;;5.30;64.81;100529.52;1738965;82;21585;-42
2021/04/27 05:44:34;;;;;;;5.17;2.92;;;;;;;5.36;64.88;100531.45;1708891;82;21165;-43
2021/04/27 05:47:02;;;;;;;5.03;2.87;;;;;;;5.43;64.68;100532.11;1706121;82;21626;-42
2021/04/27 05:49:30;;;;;;;3.80;2.72;;;;;;;5.48;64.11;100527.52;1703239;82;21871;-43
2021/04/27 05:51:58;;;;;;;4.22;2.37;;;;;;;5.54;63.81;100527.73;1709577;82;21616;-44
2021/04/27 05:54:25;;;;;;;5.33;2.50;;;;;;;5.59;63.78;100529.32;1697604;82;22112;-43
2021/04/27 05:56:53;;;;;;;4.65;3.12;;;;;;;5.65;63.27;100530.86;1696211;82;21165;-44
2021/04/27 05:59:21;;;;;;;4.60;2.95;;;;;;;5.70;62.64;100525.41;1698834;84;22069;-44
2021/04/27 06:01:49;;;;;;;5.05;2.90;;;;;;;5.73;62.43;100532.75;1694862;82;21153;-42
2021/04/27 06:04:17;;;;;;;4.25;2.80;;;;;;;5.77;62.48;100526.44;1693781;82;21165;-42
2021/04/27 06:06:45;;;;;;;4.83;2.95;;;;;;;5.84;61.80;100527.05;1695461;82;21291;-42
2021/04/27 06:09:15;;;;;;;4.37;3.05;;;;;;;5.84;60.55;100529.70;1696449;82;21161;-45
2021/04/27 06:11:44;;;;;;;3.25;2.40;;;;;;;5.83;60.49;100524.02;1685854;83;21146;-42
2021/04/27 06:14:11;;;;;;;5.03;2.42;;;;;;;5.86;60.09;100526.53;1686991;83;21188;-43
2021/04/27 06:16:42;;;;;;;5.78;2.45;;;;;;;5.91;59.08;100527.69;1675913;84;21149;-45
2021/04/27 06:19:13;;;;;;;2.67;2.02;;;;;;;5.98;58.79;100537.16;1685545;83;21169;-45
2021/04/27 06:21:43;;;;;;;3.72;2.15;;;;;;;6.03;58.15;100527.25;1670875;83;21154;-45
2021/04/27 06:24:11;;;;;;;3.80;2.55;;;;;;;6.09;57.78;100527.47;1673256;85;21198;-45
2021/04/27 06:26:39;;;;;;;4.00;2.10;;;;;;;6.16;58.25;100522.34;1698497;82;21605;-45
2021/04/27 06:29:06;;;;;;;2.67;1.90;;;;;;;6.23;57.75;100520.70;1699937;82;21165;-43
2021/04/27 06:31:34;;;;;;;4.80;2.00;;;;;;;6.32;57.61;100518.61;1697007;82;21157;-43
2021/04/27 06:34:02;;;;;;;4.70;1.85;;;;;;;6.33;55.71;100518.55;1698387;83;21184;-43
2021/04/27 06:36:31;;;;;;;3.50;2.45;;;;;;;6.32;54.64;100514.16;1695608;83;21157;-43
2021/04/27 06:39:01;;;;;;;3.55;2.33;;;;;;;6.25;54.44;100516.22;1679337;84;21164;-41
2021/04/27 06:41:32;;;;;;;2.42;1.72;;;;;;;6.25;54.36;100521.52;1685718;83;21161;-44
2021/04/27 06:44:01;;;;;;;3.10;1.92;;;;;;;6.26;54.01;100519.25;1669614;84;21303;-44
2021/04/27 06:46:29;;;;;;;2.15;1.87;;;;;;;6.29;53.35;100516.47;1689969;84;21185;-40
2021/04/27 06:48:57;;;;;;;5.03;1.92;;;;;;;6.34;52.99;100523.39;1674326;83;21150;-42
2021/04/27 06:51:25;;;;;;;3.72;1.85;;;;;;;6.37;52.65;100520.14;1677604;84;21700;-43
2021/04/27 06:53:53;;;;;;;3.27;1.60;;;;;;;6.38;51.32;100517.05;1640297;84;21195;-44
2021/04/27 06:56:26;;;;;;;6.87;1.95;;;;;;;6.32;51.15;100518.61;1677654;84;21717;-45
2021/04/27 06:59:02;;;;;;;4.67;2.12;;;;;;;6.34;50.99;100522.06;1691144;83;21684;-45
2021/04/27 07:02:46;;;;;;;2.22;1.30;;;;;;;6.38;51.19;100517.91;1670759;83;21190;-51
2021/04/27 07:05:14;;;;;;;3.58;1.90;;;;;;;6.51;50.29;100519.59;1668076;83;21135;-44
2021/04/27 07:07:42;;;;;;;2.62;1.62;;;;;;;6.56;50.49;100514.11;1679967;84;21312;-45
2021/04/27 07:10:11;;;;;;;2.22;1.85;;;;;;;6.64;51.59;100514.64;1687221;83;21540;-43
2021/04/27 07:12:39;;;;;;;2.52;1.60;;;;;;;6.70;49.37;100503.34;1691531;83;21141;-42
2021/04/27 07:15:08;;;;;;;3.37;1.90;;;;;;;6.75;48.81;100507.09;1680836;83;21148;-46
2021/04/27 07:17:35;;;;;;;4.40;1.57;;;;;;;6.77;49.16;100510.55;1685630;83;21611;-45
2021/04/27 07:20:05;;;;;;;4.28;2.02;;;;;;;6.81;50.14;100501.55;1669681;83;21152;-44
2021/04/27 07:22:33;;;;;;;3.58;1.92;;;;;;;6.90;49.16;100507.80;1684446;83;21200;-44
2021/04/27 07:25:03;;;;;;;2.92;1.30;;;;;;;7.00;49.89;100501.61;1685821;83;21156;-44
2021/04/27 07:27:33;;;;;;;;;;;;;;;7.11;47.25;100503.81;1688805;83;21505;-45
2021/04/27 07:30:01;;;;;;;3.67;1.50;;;;;;;7.22;44.74;100499.36;1688465;83;20183;-43
2021/04/27 07:32:29;;;;;;;3.65;1.32;;;;;;;7.25;43.99;100505.84;1685418;83;21175;-46
2021/04/27 07:34:56;;;;;;;2.58;1.75;;;;;;;7.25;44.42;100496.09;1683135;83;21164;-44
2021/04/27 07:37:24;;;;;;;2.10;1.30;;;;;;;7.24;45.05;100496.17;1687361;83;21132;-44
2021/04/27 07:39:52;;;;;;;1.85;1.20;;;;;;;7.25;46.26;100498.74;1687242;83;21314;-46
2021/04/27 07:42:22;;;;;;;2.12;1.50;;;;;;;7.32;46.55;100492.70;1688856;83;21187;-47
2021/04/27 07:44:51;;;;;;;1.02;0.93;;;;;;;7.37;45.90;100490.71;1684252;83;21154;-47
2021/04/27 07:47:19;;;;;;;2.00;1.17;;;;;;;7.45;46.26;100493.88;1682326;83;21159;-47
2021/04/27 07:49:47;;;;;;;3.00;1.30;;;;;;;7.57;45.77;100499.09;1666624;84;21588;-46
2021/04/27 07:52:14;;;;;;;1.20;0.98;;;;;;;7.61;44.37;100490.08;1687532;83;21180;-45
2021/04/27 07:54:42;;;;;;;2.12;0.90;;;;;;;7.50;43.40;100491.02;1685333;83;21575;-47
2021/04/27 07:57:10;;;;;;;1.67;1.40;;;;;;;7.42;44.16;100494.48;1683198;83;21147;-46
2021/04/27 07:59:37;;;;;;;1.60;0.95;;;;;;;7.39;43.12;100491.51;1689653;83;21155;-46
2021/04/27 08:02:05;;;;;;;2.33;1.40;;;;;;;7.48;44.00;100488.42;1686035;83;21163;-47
2021/04/27 08:04:33;;;;;;;1.27;1.05;;;;;;;7.48;44.00;100488.42;1686961;83;21132;-48
2021/04/27 08:07:01;;;;;;;2.12;1.32;;;;;;;7.60;43.24;100483.02;1685324;83;21175;-47
2021/04/27 08:09:32;;;;;;;2.52;1.40;;;;;;;7.70;42.98;100489.62;1685127;83;21176;-47
2021/04/27 08:12:03;;;;;;;2.05;1.30;;;;;;;7.80;42.95;100492.72;1683665;83;21180;-46
2021/04/27 08:14:30;;;;;;;1.52;1.10;;;;;;;7.89;42.14;100494.10;1703471;82;21373;-45
2021/04/27 08:16:59;;;;;;;2.20;1.45;;;;;;;7.90;42.27;100494.01;1705314;82;21172;-47
2021/04/27 08:19:30;;;;;;;2.35;1.40;;;;;;;7.80;41.51;100485.61;1727670;81;21303;-46
2021/04/27 08:22:02;;;;;;;1.82;1.00;;;;;;;7.72;43.08;100485.59;1726568;81;21142;-46
2021/04/27 08:24:29;;;;;;;1.65;0.90;;;;;;;7.77;41.90;100487.56;1711149;82;21161;-47
2021/04/27 08:27:02;;;;;;;1.98;0.90;;;;;;;7.87;42.07;100492.83;1685321;83;22128;-48
2021/04/27 08:29:30;;;;;;;;;;;;;;;8.00;41.74;100491.78;1716277;82;21158;-46
2021/04/27 08:31:59;;;;;;;1.00;0.68;;;;;;;8.09;40.87;100478.07;1726101;81;20521;-47
2021/04/27 08:34:29;;;;;;;1.57;1.00;;;;;;;8.21;41.19;100475.27;1729818;81;21134;-46
2021/04/27 08:37:01;;;;;;;2.65;1.32;;;;;;;8.31;39.90;100485.84;1728238;81;21680;-46
2021/04/27 08:39:28;;;;;;;1.55;0.82;;;;;;;8.28;40.37;100481.16;1729291;81;21146;-48
2021/04/27 08:41:57;;;;;;;2.35;1.57;;;;;;;8.36;40.10;100477.17;1726509;81;21162;-47
2021/04/27 08:44:26;;;;;;;2.50;1.35;;;;;;;8.48;39.89;100463.79;1686830;82;21545;-46
2021/04/27 08:46:56;;;;;;;1.95;1.17;;;;;;;8.59;39.43;100472.10;1688806;83;21503;-47
2021/04/27 08:49:24;;;;;;;;;;;;;;;8.59;39.43;100472.10;1726911;82;21138;-45
2021/04/27 08:51:52;;;;;;;1.20;0.72;;;;;;;8.62;40.17;100469.28;1726719;81;20204;-46
2021/04/27 08:54:22;;;;;;;2.33;1.02;;;;;;;8.63;40.00;100470.13;1721331;82;21135;-45
2021/04/27 08:56:50;;;;;;;0.53;0.45;;;;;;;8.68;38.89;100466.77;1731544;81;21151;-45
2021/04/27 08:59:18;;;;;;;1.45;0.90;;;;;;;8.73;37.46;100465.22;1726878;81;21563;-46
2021/04/27 09:01:46;;;;;;;1.45;1.20;;;;;;;8.76;37.13;100464.58;1705162;82;21122;-45
2021/04/27 09:04:47;;;;;;;2.65;1.35;;;;;;;8.80;38.54;100473.27;1732304;82;21142;-44
2021/04/27 09:07:20;;;;;;;3.20;1.15;;;;;;;8.69;38.59;100468.95;1727381;81;21153;-41
2021/04/27 09:09:54;;;;;;;1.92;0.90;;;;;;;8.54;39.08;100469.25;1723263;82;21771;-44
2021/04/27 09:12:28;;;;;;;2.52;1.30;;;;;;;8.43;39.11;100458.70;1727826;81;21803;-45
2021/04/27 09:14:57;;;;;;;1.85;1.02;;;;;;;8.33;38.80;100460.53;1725177;81;21546;-46
2021/04/27 09:17:27;;;;;;;1.32;1.00;;;;;;;8.33;38.80;100460.53;1736304;81;21300;-45
2021/04/27 09:19:58;;;;;;;1.57;1.00;;;;;;;8.33;38.68;100460.53;1729819;81;21154;-45
2021/04/27 09:22:34;;;;;;;1.95;1.22;;;;;;;8.24;37.84;100454.75;1725011;81;21157;-46
2021/04/27 09:25:06;;;;;;;2.75;1.00;;;;;;;8.22;38.78;100465.91;1723053;81;21158;-47
2021/04/27 09:27:40;;;;;;;1.40;0.72;;;;;;;8.28;38.32;100446.62;1725010;81;21138;-44
2021/04/27 09:30:24;;;;;;;1.90;1.32;;;;;;;8.36;38.45;100461.23;1730801;81;21127;-46
2021/04/27 09:32:58;;;;;;;2.40;1.22;;;;;;;8.41;37.63;100466.35;1723380;81;21131;-48
2021/04/27 09:35:35;;;;;;;2.80;1.12;;;;;;;8.39;37.33;100465.12;1723969;82;21177;-49
2021/04/27 09:38:22;;;;;;;1.65;1.12;;;;;;;8.34;37.94;100459.58;1718626;81;21165;-45
2021/04/27 09:41:01;;;;;;;2.58;1.40;;;;;;;8.33;38.30;100465.38;1721477;81;21280;-43
2021/04/27 09:43:34;;;;;;;2.00;1.07;;;;;;;8.38;38.96;100458.03;1726897;81;21288;-46
2021/04/27 09:46:09;;;;;;;2.25;1.25;;;;;;;8.49;39.56;100458.00;1727859;81;21158;-47
2021/04/27 09:48:43;;;;;;;3.77;1.80;;;;;;;8.64;39.11;100455.89;1726658;81;21488;-48
2021/04/27 09:51:19;;;;;;;1.85;1.12;;;;;;;8.75;38.40;100454.89;1716697;82;21582;-45
2021/04/27 09:54:01;;;;;;;3.17;1.57;;;;;;;8.82;38.53;100452.75;1724028;81;21260;-45
2021/04/27 09:56:49;;;;;;;1.65;1.32;;;;;;;8.91;38.36;100454.09;1722847;81;21300;-46
2021/04/27 09:59:27;;;;;;;2.47;1.07;;;;;;;8.97;38.10;100459.08;1722132;81;21288;-43
2021/04/27 10:01:55;;;;;;;1.50;1.05;;;;;;;9.01;38.13;100465.50;1722244;81;21586;-55
2021/04/27 10:04:26;;;;;;;2.15;1.50;;;;;;;9.03;37.68;100456.98;1724145;81;21558;-46
2021/04/27 10:06:57;;;;;;;1.70;1.10;;;;;;;9.06;37.29;100458.14;1719203;81;21280;-46
2021/04/27 10:09:25;;;;;;;1.47;0.90;;;;;;;9.09;38.30;100467.75;1709400;82;22028;-47
2021/04/27 10:11:53;;;;;;;0.80;0.70;;;;;;;9.09;36.75;100460.63;1727107;81;21137;-46
2021/04/27 10:14:21;;;;;;;2.83;1.42;;;;;;;9.12;37.89;100458.75;1729749;81;21185;-44
2021/04/27 10:16:49;;;;;;;1.82;1.00;;;;;;;9.20;37.21;100453.44;1705083;81;21157;-46
2021/04/27 10:19:17;;;;;;;1.92;1.02;;;;;;;9.25;35.89;100451.39;1731221;80;21139;-44
2021/04/27 10:21:48;;;;;;;1.35;1.07;;;;;;;9.24;36.51;100458.11;1728303;81;21135;-44
2021/04/27 10:24:19;;;;;;;1.82;1.22;;;;;;;9.29;37.22;100457.39;1725304;81;21158;-43
2021/04/27 10:26:47;;;;;;;1.82;1.32;;;;;;;9.36;37.78;100461.92;1724412;81;21126;-49
2021/04/27 10:29:20;;;;;;;2.65;1.50;;;;;;;9.33;35.84;100459.44;1721547;82;21150;-46
2021/04/27 10:32:10;;;;;;;1.90;1.25;;;;;;;9.22;36.03;100460.87;1717819;81;21824;-46
2021/04/27 10:34:38;;;;;;;3.47;1.35;;;;;;;9.07;36.20;100462.53;1691974;83;21315;-47
2021/04/27 10:37:06;;;;;;;2.05;1.30;;;;;;;8.97;37.10;100463.95;1640354;83;21223;-47
2021/04/27 10:39:43;;;;;;;1.55;1.00;;;;;;;8.93;37.24;100462.86;1682041;84;21623;-46
2021/04/27 10:42:29;;;;;;;2.25;0.90;;;;;;;8.92;37.53;100460.68;1681169;83;21154;-52
2021/04/27 10:45:02;;;;;;;2.47;1.17;;;;;;;8.99;36.80;100458.06;1672124;84;21315;-45
2021/04/27 10:47:39;;;;;;;1.42;1.10;;;;;;;9.01;37.14;100443.36;1683448;83;21153;-46
2021/04/27 10:50:07;;;;;;;3.15;1.12;;;;;;;8.98;38.36;100447.52;1683695;83;21178;-43
2021/04/27 10:52:39;;;;;;;2.95;1.50;;;;;;;8.96;37.69;100446.73;1683862;84;21323;-46
2021/04/27 10:55:27;;;;;;;1.85;1.10;;;;;;;8.94;37.97;100446.80;1681931;83;21352;-46
2021/04/27 10:58:00;;;;;;;2.67;1.40;;;;;;;8.92;38.69;100447.83;1681038;84;21315;-45
2021/04/27 11:00:39;;;;;;;2.65;1.20;;;;;;;8.87;38.40;100453.41;1679253;84;21170;-45
2021/04/27 11:03:25;;;;;;;2.10;1.30;;;;;;;8.83;38.24;100445.19;1716725;81;21182;-44
2021/04/27 11:06:07;;;;;;;2.20;1.32;;;;;;;8.82;38.28;100448.33;1721525;81;21585;-45
2021/04/27 11:08:57;;;;;;;2.35;1.35;;;;;;;8.79;38.51;100443.14;1720881;81;21282;-45
2021/04/27 11:11:31;;;;;;;2.27;1.60;;;;;;;8.85;38.86;100442.84;1720633;81;21158;-46
2021/04/27 11:14:20;;;;;;;2.77;1.40;;;;;;;8.95;38.96;100439.71;1728605;81;21676;-46
2021/04/27 11:16:57;;;;;;;3.20;1.17;;;;;;;9.04;39.50;100437.41;1736379;82;21291;-46
2021/04/27 11:19:31;;;;;;;1.95;1.20;;;;;;;9.32;38.17;100431.94;1736576;80;21424;-45
2021/04/27 11:22:24;;;;;;;2.12;1.27;;;;;;;9.32;38.17;100431.94;1732857;80;21303;-45
2021/04/27 11:24:52;;;;;;;1.40;0.90;;;;;;;9.39;35.89;100435.14;1739269;80;21134;-46
2021/04/27 11:27:32;;;;;;;2.85;1.17;;;;;;;9.36;36.96;100434.83;1735611;80;21185;-47
2021/04/27 11:30:12;;;;;;;2.37;1.20;;;;;;;9.37;36.46;100430.36;1739807;80;21154;-47
2021/04/27 11:32:42;;;;;;;2.25;1.07;;;;;;;9.46;36.51;100437.86;1735201;80;21299;-46
2021/04/27 11:35:15;;;;;;;2.12;1.10;;;;;;;9.52;36.75;100441.50;1738066;80;21148;-47
2021/04/27 11:37:50;;;;;;;1.50;0.93;;;;;;;9.61;36.87;100440.16;1732926;82;21161;-48
2021/04/27 11:40:31;;;;;;;1.92;1.15;;;;;;;9.70;36.26;100440.96;1738296;80;21126;-47
2021/04/27 11:43:03;;;;;;;1.75;1.15;;;;;;;9.71;35.40;100431.56;1743433;80;21290;-47
2021/04/27 11:45:34;;;;;;;2.95;1.62;;;;;;;9.72;35.34;100428.42;1736187;80;21142;-47
2021/04/27 11:48:02;;;;;;;1.22;0.75;;;;;;;9.73;35.87;100423.50;1733200;81;21645;-47
2021/04/27 11:50:32;;;;;;;1.65;1.00;;;;;;;9.76;35.38;100424.66;1732355;82;21113;-46
2021/04/27 11:53:15;;;;;;;1.12;0.80;;;;;;;9.74;35.92;100426.06;1737507;80;21114;-47
2021/04/27 11:55:46;;;;;;;2.20;1.30;;;;;;;9.81;36.32;100426.59;1735767;80;21661;-47